Terminal Aerodrome Forecast
Issued by NWS Sterling, VA

Current Version | Previous Version | Text Only | Print | Product List | Glossary Off
Versions: 1 2 3 4 5 6 7 8 9 10 11 12 13 14 15 16 17

000
FTUS41 KLWX 160848 AAA
TAFMRB
TAF AMD
KMRB 160848Z 1609/1706 31008KT P6SM BKN120
     FM161400 33013G23KT P6SM SCT040
     FM162200 32009KT P6SM SCT060
     FM170300 32005KT P6SM SKC=

USA.gov is the U.S. government's official web portal to all federal, state and local government web resources and services.